sensor_id;sensor_type;location;lat;lon;timestamp;pressure;altitude;pressure_sealevel;temperature;humidity
2339;BME280;1180;51.438;6.978;2023-07-28T00:01:26;99248.09;;;20.22;100.00
2339;BME280;1180;51.438;6.978;2023-07-28T00:03:57;99255.81;;;20.30;100.00
2339;BME280;1180;51.438;6.978;2023-07-28T00:06:23;99250.88;;;20.35;100.00
2339;BME280;1180;51.438;6.978;2023-07-28T00:08:49;99253.28;;;20.37;100.00
2339;BME280;1180;51.438;6.978;2023-07-28T00:11:15;99255.47;;;20.33;100.00
2339;BME280;1180;51.438;6.978;2023-07-28T00:13:42;99253.84;;;20.32;100.00
2339;BME280;1180;51.438;6.978;2023-07-28T00:16:09;99245.03;;;20.33;100.00
2339;BME280;1180;51.438;6.978;2023-07-28T00:18:35;99248.78;;;20.16;100.00
2339;BME280;1180;51.438;6.978;2023-07-28T00:21:01;99249.41;;;20.18;100.00
2339;BME280;1180;51.438;6.978;2023-07-28T00:23:28;99247.53;;;20.27;100.00
2339;BME280;1180;51.438;6.978;2023-07-28T00:25:55;99259.41;;;20.29;100.00
2339;BME280;1180;51.438;6.978;2023-07-28T00:28:20;99243.22;;;20.19;100.00
2339;BME280;1180;51.438;6.978;2023-07-28T00:30:50;99247.75;;;20.25;100.00
2339;BME280;1180;51.438;6.978;2023-07-28T00:33:16;99247.63;;;20.33;100.00
2339;BME280;1180;51.438;6.978;2023-07-28T00:35:43;99238.56;;;20.29;100.00
2339;BME280;1180;51.438;6.978;2023-07-28T00:38:11;99243.16;;;20.27;100.00
2339;BME280;1180;51.438;6.978;2023-07-28T00:40:37;99234.63;;;20.33;100.00
2339;BME280;1180;51.438;6.978;2023-07-28T00:43:03;99241.53;;;20.26;100.00
2339;BME280;1180;51.438;6.978;2023-07-28T00:45:30;99236.13;;;20.28;100.00
2339;BME280;1180;51.438;6.978;2023-07-28T00:47:58;99235.50;;;20.26;100.00
2339;BME280;1180;51.438;6.978;2023-07-28T00:50:25;99241.69;;;20.25;100.00
2339;BME280;1180;51.438;6.978;2023-07-28T00:52:52;99234.78;;;20.17;100.00
2339;BME280;1180;51.438;6.978;2023-07-28T00:55:18;99235.41;;;20.19;100.00
2339;BME280;1180;51.438;6.978;2023-07-28T00:57:44;99239.28;;;20.23;100.00
2339;BME280;1180;51.438;6.978;2023-07-28T01:00:11;99237.94;;;20.27;100.00
2339;BME280;1180;51.438;6.978;2023-07-28T01:02:37;99236.13;;;20.28;100.00
2339;BME280;1180;51.438;6.978;2023-07-28T01:05:04;99243.22;;;20.34;100.00
2339;BME280;1180;51.438;6.978;2023-07-28T01:07:40;99237.22;;;20.33;100.00
2339;BME280;1180;51.438;6.978;2023-07-28T01:10:16;99239.63;;;20.35;100.00
2339;BME280;1180;51.438;6.978;2023-07-28T01:12:43;99239.00;;;20.33;100.00
2339;BME280;1180;51.438;6.978;2023-07-28T01:15:09;99236.59;;;20.31;100.00
2339;BME280;1180;51.438;6.978;2023-07-28T01:17:35;99239.91;;;20.25;100.00
2339;BME280;1180;51.438;6.978;2023-07-28T01:20:02;99239.28;;;20.23;100.00
2339;BME280;1180;51.438;6.978;2023-07-28T01:27:39;99235.25;;;20.20;100.00
2339;BME280;1180;51.438;6.978;2023-07-28T01:30:09;99245.66;;;20.20;100.00
2339;BME280;1180;51.438;6.978;2023-07-28T01:32:36;99238.47;;;20.23;100.00
2339;BME280;1180;51.438;6.978;2023-07-28T01:35:03;99241.97;;;20.30;100.00
2339;BME280;1180;51.438;6.978;2023-07-28T01:37:29;99233.16;;;20.31;100.00
2339;BME280;1180;51.438;6.978;2023-07-28T01:39:55;99236.41;;;20.33;100.00
2339;BME280;1180;51.438;6.978;2023-07-28T01:42:22;99239.81;;;20.33;100.00
2339;BME280;1180;51.438;6.978;2023-07-28T01:44:48;99235.78;;;20.31;100.00
2339;BME280;1180;51.438;6.978;2023-07-28T01:47:14;99238.22;;;20.32;100.00
2339;BME280;1180;51.438;6.978;2023-07-28T01:49:40;99244.78;;;20.28;100.00
2339;BME280;1180;51.438;6.978;2023-07-28T01:52:06;99233.88;;;20.25;100.00
2339;BME280;1180;51.438;6.978;2023-07-28T01:54:31;99238.72;;;20.28;100.00
2339;BME280;1180;51.438;6.978;2023-07-28T01:56:57;99239.56;;;20.28;100.00
2339;BME280;1180;51.438;6.978;2023-07-28T01:59:23;99236.41;;;20.18;100.00
2339;BME280;1180;51.438;6.978;2023-07-28T02:01:49;99239.63;;;20.20;100.00
2339;BME280;1180;51.438;6.978;2023-07-28T02:04:14;99236.50;;;20.25;100.00
2339;BME280;1180;51.438;6.978;2023-07-28T02:06:41;99237.13;;;20.27;100.00
2339;BME280;1180;51.438;6.978;2023-07-28T02:09:07;99239.63;;;20.35;100.00
2339;BME280;1180;51.438;6.978;2023-07-28T02:11:33;99236.94;;;20.28;100.00
2339;BME280;1180;51.438;6.978;2023-07-28T02:13:59;99236.59;;;20.31;100.00
2339;BME280;1180;51.438;6.978;2023-07-28T02:16:24;99236.22;;;20.34;100.00
2339;BME280;1180;51.438;6.978;2023-07-28T02:18:53;99248.72;;;20.39;100.00
2339;BME280;1180;51.438;6.978;2023-07-28T02:21:19;99235.69;;;20.39;100.00
2339;BME280;1180;51.438;6.978;2023-07-28T02:23:45;99238.84;;;20.34;100.00
2339;BME280;1180;51.438;6.978;2023-07-28T02:26:11;99237.94;;;20.27;100.00
2339;BME280;1180;51.438;6.978;2023-07-28T02:28:37;99248.16;;;20.29;100.00
2339;BME280;1180;51.438;6.978;2023-07-28T02:31:02;99244.41;;;20.31;100.00
2339;BME280;1180;51.438;6.978;2023-07-28T02:33:28;99245.41;;;20.30;100.00
2339;BME280;1180;51.438;6.978;2023-07-28T02:36:00;99250.06;;;20.35;100.00
2339;BME280;1180;51.438;6.978;2023-07-28T02:38:26;99252.50;;;20.37;100.00
2339;BME280;1180;51.438;6.978;2023-07-28T02:40:53;99247.91;;;20.39;100.00
2339;BME280;1180;51.438;6.978;2023-07-28T02:43:18;99255.72;;;20.39;100.00
2339;BME280;1180;51.438;6.978;2023-07-28T02:45:48;99254.47;;;20.34;100.00
2339;BME280;1180;51.438;6.978;2023-07-28T02:48:14;99263.91;;;20.35;100.00
2339;BME280;1180;51.438;6.978;2023-07-28T02:50:45;99266.16;;;20.39;100.00
2339;BME280;1180;51.438;6.978;2023-07-28T02:53:11;99267.94;;;20.38;100.00
2339;BME280;1180;51.438;6.978;2023-07-28T02:55:43;99268.91;;;20.37;100.00
2339;BME280;1180;51.438;6.978;2023-07-28T02:58:10;99275.56;;;20.40;100.00
2339;BME280;1180;51.438;6.978;2023-07-28T03:00:39;99277.66;;;20.44;100.00
2339;BME280;1180;51.438;6.978;2023-07-28T03:03:06;99278.03;;;20.41;100.00
2339;BME280;1180;51.438;6.978;2023-07-28T03:05:32;99281.41;;;20.42;100.00
2339;BME280;1180;51.438;6.978;2023-07-28T03:07:58;99279.00;;;20.40;100.00
2339;BME280;1180;51.438;6.978;2023-07-28T03:10:25;99282.03;;;20.44;100.00
2339;BME280;1180;51.438;6.978;2023-07-28T03:12:50;99283.41;;;20.40;100.00
2339;BME280;1180;51.438;6.978;2023-07-28T03:15:16;99277.19;;;20.41;100.00
2339;BME280;1180;51.438;6.978;2023-07-28T03:17:42;99284.03;;;20.42;100.00
2339;BME280;1180;51.438;6.978;2023-07-28T03:20:08;99285.13;;;20.47;100.00
2339;BME280;1180;51.438;6.978;2023-07-28T03:22:35;99283.03;;;20.43;100.00
2339;BME280;1180;51.438;6.978;2023-07-28T03:25:01;99281.69;;;20.47;100.00
2339;BME280;1180;51.438;6.978;2023-07-28T03:27:26;99283.66;;;20.45;100.00
2339;BME280;1180;51.438;6.978;2023-07-28T03:29:52;99281.69;;;20.47;100.00
2339;BME280;1180;51.438;6.978;2023-07-28T03:32:18;99285.13;;;20.47;100.00
2339;BME280;1180;51.438;6.978;2023-07-28T03:34:43;99279.69;;;20.49;100.00
2339;BME280;1180;51.438;6.978;2023-07-28T03:37:09;99289.69;;;20.45;100.00
2339;BME280;1180;51.438;6.978;2023-07-28T03:39:35;99295.53;;;20.47;100.00
2339;BME280;1180;51.438;6.978;2023-07-28T03:42:01;99286.53;;;20.50;100.00
2339;BME280;1180;51.438;6.978;2023-07-28T03:44:26;99289.13;;;20.50;100.00
2339;BME280;1180;51.438;6.978;2023-07-28T03:46:52;99289.88;;;20.44;100.00
2339;BME280;1180;51.438;6.978;2023-07-28T03:49:18;99291.47;;;20.45;100.00
2339;BME280;1180;51.438;6.978;2023-07-28T03:51:44;99297.16;;;20.48;100.00
2339;BME280;1180;51.438;6.978;2023-07-28T03:54:10;99293.91;;;20.46;100.00
2339;BME280;1180;51.438;6.978;2023-07-28T03:56:36;99302.38;;;20.48;100.00
2339;BME280;1180;51.438;6.978;2023-07-28T03:59:02;99297.94;;;20.49;100.00
2339;BME280;1180;51.438;6.978;2023-07-28T04:01:28;99299.56;;;20.50;100.00
2339;BME280;1180;51.438;6.978;2023-07-28T04:03:53;99298.22;;;20.54;100.00
2339;BME280;1180;51.438;6.978;2023-07-28T04:06:19;99305.59;;;20.51;100.00
2339;BME280;1180;51.438;6.978;2023-07-28T04:09:04;99303.25;;;20.56;100.00
2339;BME280;1180;51.438;6.978;2023-07-28T04:11:30;99300.66;;;20.56;100.00
2339;BME280;1180;51.438;6.978;2023-07-28T04:13:56;99300.19;;;20.52;100.00
2339;BME280;1180;51.438;6.978;2023-07-28T04:16:21;99294.97;;;20.52;100.00
2339;BME280;1180;51.438;6.978;2023-07-28T04:18:47;99294.81;;;20.54;100.00
2339;BME280;1180;51.438;6.978;2023-07-28T04:21:13;99287.78;;;20.54;100.00
2339;BME280;1180;51.438;6.978;2023-07-28T04:23:39;99301.81;;;20.53;100.00
2339;BME280;1180;51.438;6.978;2023-07-28T04:26:04;99300.47;;;20.57;100.00
2339;BME280;1180;51.438;6.978;2023-07-28T04:28:30;99300.66;;;20.56;100.00
2339;BME280;1180;51.438;6.978;2023-07-28T04:30:56;99299.50;;;20.58;100.00
2339;BME280;1180;51.438;6.978;2023-07-28T04:33:22;99298.94;;;20.63;100.00
2339;BME280;1180;51.438;6.978;2023-07-28T04:35:48;99299.94;;;20.62;100.00
2339;BME280;1180;51.438;6.978;2023-07-28T04:38:13;99303.97;;;20.64;100.00
2339;BME280;1180;51.438;6.978;2023-07-28T04:40:39;99298.22;;;20.69;100.00
2339;BME280;1180;51.438;6.978;2023-07-28T04:43:05;99311.25;;;20.69;100.00
2339;BME280;1180;51.438;6.978;2023-07-28T04:45:31;99318.28;;;20.69;100.00
2339;BME280;1180;51.438;6.978;2023-07-28T04:47:56;99317.91;;;20.72;100.00
2339;BME280;1180;51.438;6.978;2023-07-28T04:50:22;99318.72;;;20.72;100.00
2339;BME280;1180;51.438;6.978;2023-07-28T04:52:48;99318.72;;;20.72;100.00
2339;BME280;1180;51.438;6.978;2023-07-28T04:55:13;99311.53;;;20.74;100.00
2339;BME280;1180;51.438;6.978;2023-07-28T04:57:39;99310.09;;;20.72;100.00
2339;BME280;1180;51.438;6.978;2023-07-28T05:00:06;99312.06;;;20.70;100.00
2339;BME280;1180;51.438;6.978;2023-07-28T05:02:31;99318.06;;;20.70;100.00
2339;BME280;1180;51.438;6.978;2023-07-28T05:04:57;99317.38;;;20.76;100.00
2339;BME280;1180;51.438;6.978;2023-07-28T05:07:23;99317.53;;;20.75;100.00
2339;BME280;1180;51.438;6.978;2023-07-28T05:09:49;99318.16;;;20.77;100.00
2339;BME280;1180;51.438;6.978;2023-07-28T05:12:14;99325.66;;;20.80;100.00
2339;BME280;1180;51.438;6.978;2023-07-28T05:14:41;99317.66;;;20.82;100.00
2339;BME280;1180;51.438;6.978;2023-07-28T05:17:07;99320.06;;;20.83;100.00
2339;BME280;1180;51.438;6.978;2023-07-28T05:19:33;99325.03;;;20.93;100.00
2339;BME280;1180;51.438;6.978;2023-07-28T05:21:59;99327.53;;;21.01;100.00
2339;BME280;1180;51.438;6.978;2023-07-28T05:24:25;99337.78;;;21.03;100.00
2339;BME280;1180;51.438;6.978;2023-07-28T05:26:51;99321.16;;;21.04;100.00
2339;BME280;1180;51.438;6.978;2023-07-28T05:29:17;99330.13;;;21.01;100.00
2339;BME280;1180;51.438;6.978;2023-07-28T05:31:42;99325.53;;;21.03;100.00
2339;BME280;1180;51.438;6.978;2023-07-28T05:34:08;99326.19;;;21.05;100.00
2339;BME280;1180;51.438;6.978;2023-07-28T05:36:34;99327.81;;;21.06;100.00
2339;BME280;1180;51.438;6.978;2023-07-28T05:38:59;99332.03;;;21.08;100.00
2339;BME280;1180;51.438;6.978;2023-07-28T05:41:26;99335.63;;;21.06;100.00
2339;BME280;1180;51.438;6.978;2023-07-28T05:43:51;99339.88;;;21.08;100.00
2339;BME280;1180;51.438;6.978;2023-07-28T05:46:17;99350.28;;;21.08;100.00
2339;BME280;1180;51.438;6.978;2023-07-28T05:48:42;99354.06;;;21.05;100.00
2339;BME280;1180;51.438;6.978;2023-07-28T05:51:08;99360.44;;;21.02;100.00
2339;BME280;1180;51.438;6.978;2023-07-28T05:53:33;99355.22;;;21.02;100.00
2339;BME280;1180;51.438;6.978;2023-07-28T05:55:59;99364.50;;;21.05;100.00
2339;BME280;1180;51.438;6.978;2023-07-28T05:58:25;99368.09;;;21.04;100.00
2339;BME280;1180;51.438;6.978;2023-07-28T06:00:51;99362.88;;;21.04;100.00
2339;BME280;1180;51.438;6.978;2023-07-28T06:03:17;99363.88;;;21.03;100.00
2339;BME280;1180;51.438;6.978;2023-07-28T06:05:43;99370.25;;;21.00;100.00
2339;BME280;1180;51.438;6.978;2023-07-28T06:08:09;99373.31;;;21.04;100.00
2339;BME280;1180;51.438;6.978;2023-07-28T06:10:34;99379.69;;;21.01;100.00
2339;BME280;1180;51.438;6.978;2023-07-28T06:13:00;99370.25;;;21.00;100.00
2339;BME280;1180;51.438;6.978;2023-07-28T06:15:26;99374.19;;;21.11;100.00
2339;BME280;1180;51.438;6.978;2023-07-28T06:17:52;99377.44;;;21.13;100.00
2339;BME280;1180;51.438;6.978;2023-07-28T06:20:19;99379.25;;;21.13;100.00
2339;BME280;1180;51.438;6.978;2023-07-28T06:22:45;99381.84;;;21.13;100.00
2339;BME280;1180;51.438;6.978;2023-07-28T06:25:11;99389.69;;;21.13;100.00
2339;BME280;1180;51.438;6.978;2023-07-28T06:27:36;99388.31;;;21.17;100.00
2339;BME280;1180;51.438;6.978;2023-07-28T06:30:04;99391.94;;;21.16;100.00
2339;BME280;1180;51.438;6.978;2023-07-28T06:32:31;99393.53;;;21.17;100.00
2339;BME280;1180;51.438;6.978;2023-07-28T06:34:56;99392.34;;;21.19;100.00
2339;BME280;1180;51.438;6.978;2023-07-28T06:37:23;99394.34;;;21.17;100.00
2339;BME280;1180;51.438;6.978;2023-07-28T06:39:49;99386.50;;;21.17;100.00
2339;BME280;1180;51.438;6.978;2023-07-28T06:42:15;99394.78;;;21.21;100.00
2339;BME280;1180;51.438;6.978;2023-07-28T06:44:42;99396.78;;;21.19;100.00
2339;BME280;1180;51.438;6.978;2023-07-28T06:47:08;99397.56;;;21.19;100.00
2339;BME280;1180;51.438;6.978;2023-07-28T06:49:33;99393.63;;;21.24;100.00
2339;BME280;1180;51.438;6.978;2023-07-28T06:51:59;99401.72;;;21.29;100.00
2339;BME280;1180;51.438;6.978;2023-07-28T06:54:25;99406.13;;;21.28;100.00
2339;BME280;1180;51.438;6.978;2023-07-28T06:56:51;99403.06;;;21.25;100.00
2339;BME280;1180;51.438;6.978;2023-07-28T06:59:16;99410.19;;;21.31;100.00
2339;BME280;1180;51.438;6.978;2023-07-28T07:01:42;99410.59;;;21.34;100.00
2339;BME280;1180;51.438;6.978;2023-07-28T07:04:08;99413.66;;;21.38;100.00
2339;BME280;1180;51.438;6.978;2023-07-28T07:06:33;99411.94;;;21.45;100.00
2339;BME280;1180;51.438;6.978;2023-07-28T07:08:59;99418.16;;;21.44;100.00
2339;BME280;1180;51.438;6.978;2023-07-28T07:11:25;99417.78;;;21.47;100.00
2339;BME280;1180;51.438;6.978;2023-07-28T07:13:51;99416.41;;;21.52;100.00
2339;BME280;1180;51.438;6.978;2023-07-28T07:16:17;99423.53;;;21.58;100.00
2339;BME280;1180;51.438;6.978;2023-07-28T07:18:43;99424.78;;;21.62;100.00
2339;BME280;1180;51.438;6.978;2023-07-28T07:21:09;99432.63;;;21.62;100.00
2339;BME280;1180;51.438;6.978;2023-07-28T07:23:36;99424.25;;;21.67;100.00
2339;BME280;1180;51.438;6.978;2023-07-28T07:26:03;99430.38;;;21.74;100.00
2339;BME280;1180;51.438;6.978;2023-07-28T07:28:29;99421.53;;;21.75;100.00
2339;BME280;1180;51.438;6.978;2023-07-28T07:30:55;99422.53;;;21.74;100.00
2339;BME280;1180;51.438;6.978;2023-07-28T07:33:21;99435.03;;;21.78;100.00
2339;BME280;1180;51.438;6.978;2023-07-28T07:35:47;99425.03;;;21.82;100.00
2339;BME280;1180;51.438;6.978;2023-07-28T07:38:12;99429.69;;;21.87;100.00
2339;BME280;1180;51.438;6.978;2023-07-28T07:40:38;99439.22;;;21.95;100.00
2339;BME280;1180;51.438;6.978;2023-07-28T07:43:04;99436.78;;;21.93;100.00
2339;BME280;1180;51.438;6.978;2023-07-28T07:45:30;99432.25;;;22.02;100.00
2339;BME280;1180;51.438;6.978;2023-07-28T07:47:56;99434.06;;;22.01;100.00
2339;BME280;1180;51.438;6.978;2023-07-28T07:50:22;99441.34;;;22.06;100.00
2339;BME280;1180;51.438;6.978;2023-07-28T07:52:49;99439.16;;;22.10;100.00
2339;BME280;1180;51.438;6.978;2023-07-28T07:55:14;99444.44;;;22.16;100.00
2339;BME280;1180;51.438;6.978;2023-07-28T07:57:41;99443.06;;;22.20;100.00
2339;BME280;1180;51.438;6.978;2023-07-28T08:00:08;99440.53;;;22.27;100.00
2339;BME280;1180;51.438;6.978;2023-07-28T08:02:34;99442.81;;;22.37;100.00
2339;BME280;1180;51.438;6.978;2023-07-28T08:05:00;99448.84;;;22.38;100.00
2339;BME280;1180;51.438;6.978;2023-07-28T08:07:26;99443.88;;;22.43;100.00
2339;BME280;1180;51.438;6.978;2023-07-28T08:09:51;99446.75;;;22.48;100.00
2339;BME280;1180;51.438;6.978;2023-07-28T08:12:17;99441.13;;;22.51;100.00
2339;BME280;1180;51.438;6.978;2023-07-28T08:14:44;99448.84;;;22.59;100.00
2339;BME280;1180;51.438;6.978;2023-07-28T08:17:12;99453.25;;;22.59;100.00
2339;BME280;1180;51.438;6.978;2023-07-28T08:19:38;99459.63;;;22.49;100.00
2339;BME280;1180;51.438;6.978;2023-07-28T08:22:04;99464.44;;;22.46;100.00
2339;BME280;1180;51.438;6.978;2023-07-28T08:24:29;99459.94;;;22.40;100.00
2339;BME280;1180;51.438;6.978;2023-07-28T08:26:55;99464.09;;;22.34;100.00
2339;BME280;1180;51.438;6.978;2023-07-28T08:29:21;99459.81;;;22.26;100.00
2339;BME280;1180;51.438;6.978;2023-07-28T08:31:47;99470.28;;;22.26;100.00
2339;BME280;1180;51.438;6.978;2023-07-28T08:34:12;99468.53;;;22.33;100.00
2339;BME280;1180;51.438;6.978;2023-07-28T08:36:38;99469.81;;;22.44;100.00
2339;BME280;1180;51.438;6.978;2023-07-28T08:39:05;99475.94;;;22.52;100.00
2339;BME280;1180;51.438;6.978;2023-07-28T08:41:31;99472.16;;;22.54;100.00
2339;BME280;1180;51.438;6.978;2023-07-28T08:43:57;99474.44;;;22.64;100.00
2339;BME280;1180;51.438;6.978;2023-07-28T08:46:23;99474.25;;;22.65;100.00
2339;BME280;1180;51.438;6.978;2023-07-28T08:48:49;99487.00;;;22.75;100.00
2339;BME280;1180;51.438;6.978;2023-07-28T08:51:14;99481.38;;;22.78;100.00
2339;BME280;1180;51.438;6.978;2023-07-28T08:53:40;99481.25;;;22.87;100.00
2339;BME280;1180;51.438;6.978;2023-07-28T08:56:06;99493.50;;;22.86;100.00
2339;BME280;1180;51.438;6.978;2023-07-28T08:58:32;99491.16;;;22.98;100.00
2339;BME280;1180;51.438;6.978;2023-07-28T09:00:59;99491.38;;;23.03;100.00
2339;BME280;1180;51.438;6.978;2023-07-28T09:03:29;99495.28;;;23.14;100.00
2339;BME280;1180;51.438;6.978;2023-07-28T09:06:01;99493.28;;;23.16;100.00
2339;BME280;1180;51.438;6.978;2023-07-28T09:08:28;99488.66;;;23.18;100.00
2339;BME280;1180;51.438;6.978;2023-07-28T09:10:55;99493.34;;;23.23;100.00
2339;BME280;1180;51.438;6.978;2023-07-28T09:13:21;99493.19;;;23.25;100.00
2339;BME280;1180;51.438;6.978;2023-07-28T09:15:47;99498.44;;;23.31;100.00
2339;BME280;1180;51.438;6.978;2023-07-28T09:18:16;99504.94;;;23.42;100.00
2339;BME280;1180;51.438;6.978;2023-07-28T09:20:43;99500.88;;;23.33;100.00
2339;BME280;1180;51.438;6.978;2023-07-28T09:23:10;99498.69;;;23.43;100.00
2339;BME280;1180;51.438;6.978;2023-07-28T09:25:37;99494.72;;;23.54;100.00
2339;BME280;1180;51.438;6.978;2023-07-28T09:28:04;99496.16;;;23.57;100.00
2339;BME280;1180;51.438;6.978;2023-07-28T09:30:47;99493.53;;;23.57;100.00
2339;BME280;1180;51.438;6.978;2023-07-28T09:33:28;99503.63;;;23.60;100.00
2339;BME280;1180;51.438;6.978;2023-07-28T09:35:54;99496.78;;;23.65;100.00
2339;BME280;1180;51.438;6.978;2023-07-28T09:38:21;99503.84;;;23.65;100.00
2339;BME280;1180;51.438;6.978;2023-07-28T09:40:48;99499.78;;;23.62;100.00
2339;BME280;1180;51.438;6.978;2023-07-28T09:43:14;99493.75;;;23.62;100.00
2339;BME280;1180;51.438;6.978;2023-07-28T09:45:42;99499.81;;;23.69;100.00
2339;BME280;1180;51.438;6.978;2023-07-28T09:48:10;99497.44;;;23.81;100.00
2339;BME280;1180;51.438;6.978;2023-07-28T09:50:38;99501.47;;;23.77;100.00
2339;BME280;1180;51.438;6.978;2023-07-28T09:53:09;99504.50;;;23.80;100.00
2339;BME280;1180;51.438;6.978;2023-07-28T09:55:39;99502.91;;;23.86;100.00
2339;BME280;1180;51.438;6.978;2023-07-28T09:58:09;99496.63;;;23.80;99.08
2339;BME280;1180;51.438;6.978;2023-07-28T10:00:35;99498.28;;;23.88;99.53
2339;BME280;1180;51.438;6.978;2023-07-28T10:03:02;99501.09;;;23.93;100.00
2339;BME280;1180;51.438;6.978;2023-07-28T10:05:31;99510.56;;;23.88;100.00
2339;BME280;1180;51.438;6.978;2023-07-28T10:07:58;99509.75;;;23.87;100.00
2339;BME280;1180;51.438;6.978;2023-07-28T10:10:25;99511.56;;;23.80;100.00
2339;BME280;1180;51.438;6.978;2023-07-28T10:12:54;99517.59;;;23.80;100.00
2339;BME280;1180;51.438;6.978;2023-07-28T10:15:21;99509.94;;;23.79;100.00
2339;BME280;1180;51.438;6.978;2023-07-28T10:17:54;99515.56;;;23.83;100.00
2339;BME280;1180;51.438;6.978;2023-07-28T10:20:36;99521.25;;;23.86;100.00
2339;BME280;1180;51.438;6.978;2023-07-28T10:23:11;99520.25;;;23.87;99.91
2339;BME280;1180;51.438;6.978;2023-07-28T10:25:38;99525.44;;;23.80;100.00
2339;BME280;1180;51.438;6.978;2023-07-28T10:28:05;99531.09;;;23.84;100.00
2339;BME280;1180;51.438;6.978;2023-07-28T10:30:36;99524.25;;;23.83;100.00
2339;BME280;1180;51.438;6.978;2023-07-28T10:33:03;99527.53;;;23.92;100.00
2339;BME280;1180;51.438;6.978;2023-07-28T10:35:28;99526.13;;;23.96;100.00
2339;BME280;1180;51.438;6.978;2023-07-28T10:37:56;99534.78;;;23.97;100.00
2339;BME280;1180;51.438;6.978;2023-07-28T10:42:54;99534.38;;;24.00;100.00
2339;BME280;1180;51.438;6.978;2023-07-28T10:45:22;99532.81;;;24.05;100.00
2339;BME280;1180;51.438;6.978;2023-07-28T10:47:49;99532.22;;;24.03;99.79
2339;BME280;1180;51.438;6.978;2023-07-28T10:50:15;99526.56;;;24.06;100.00
2339;BME280;1180;51.438;6.978;2023-07-28T10:52:42;99534.25;;;24.08;99.30
2339;BME280;1180;51.438;6.978;2023-07-28T10:55:21;99527.81;;;24.31;99.08
2339;BME280;1180;51.438;6.978;2023-07-28T10:57:48;99524.44;;;24.50;99.46
2339;BME280;1180;51.438;6.978;2023-07-28T11:00:17;99530.69;;;24.56;96.93
2339;BME280;1180;51.438;6.978;2023-07-28T11:02:44;99530.06;;;24.61;93.80
2339;BME280;1180;51.438;6.978;2023-07-28T11:05:12;99524.25;;;24.65;94.41
2339;BME280;1180;51.438;6.978;2023-07-28T11:07:42;99522.03;;;24.76;95.56
2339;BME280;1180;51.438;6.978;2023-07-28T11:10:10;99521.25;;;24.75;95.07
2339;BME280;1180;51.438;6.978;2023-07-28T11:12:40;99518.19;;;24.72;95.01
2339;BME280;1180;51.438;6.978;2023-07-28T11:15:12;99526.88;;;24.72;95.44
2339;BME280;1180;51.438;6.978;2023-07-28T11:17:51;99530.47;;;24.58;94.34
2339;BME280;1180;51.438;6.978;2023-07-28T11:20:26;99525.03;;;24.52;95.98
2339;BME280;1180;51.438;6.978;2023-07-28T11:23:00;99520.97;;;24.50;97.34
2339;BME280;1180;51.438;6.978;2023-07-28T11:25:28;99515.56;;;24.58;97.80
2339;BME280;1180;51.438;6.978;2023-07-28T11:27:54;99516.56;;;24.64;96.55
2339;BME280;1180;51.438;6.978;2023-07-28T11:30:21;99513.75;;;24.65;96.97
2339;BME280;1180;51.438;6.978;2023-07-28T11:32:49;99512.91;;;24.65;97.71
2339;BME280;1180;51.438;6.978;2023-07-28T11:35:17;99512.94;;;24.58;97.66
2339;BME280;1180;51.438;6.978;2023-07-28T11:37:45;99522.22;;;24.47;97.48
2339;BME280;1180;51.438;6.978;2023-07-28T11:40:11;99523.03;;;24.41;98.00
2339;BME280;1180;51.438;6.978;2023-07-28T11:42:41;99528.84;;;24.36;98.91
2339;BME280;1180;51.438;6.978;2023-07-28T11:45:10;99531.84;;;24.27;99.83
2339;BME280;1180;51.438;6.978;2023-07-28T11:47:37;99536.47;;;24.18;100.00
2339;BME280;1180;51.438;6.978;2023-07-28T11:50:03;99535.25;;;24.14;100.00
2339;BME280;1180;51.438;6.978;2023-07-28T11:52:33;99533.75;;;23.98;100.00
2339;BME280;1180;51.438;6.978;2023-07-28T11:55:00;99543.63;;;23.89;100.00
2339;BME280;1180;51.438;6.978;2023-07-28T11:57:27;99551.25;;;23.84;100.00
2339;BME280;1180;51.438;6.978;2023-07-28T11:59:56;99545.78;;;23.78;100.00
2339;BME280;1180;51.438;6.978;2023-07-28T12:02:29;99546.63;;;23.86;100.00
2339;BME280;1180;51.438;6.978;2023-07-28T12:04:56;99534.22;;;24.01;100.00
2339;BME280;1180;51.438;6.978;2023-07-28T12:07:31;99528.22;;;24.21;100.00
2339;BME280;1180;51.438;6.978;2023-07-28T12:09:57;99524.81;;;24.41;100.00
2339;BME280;1180;51.438;6.978;2023-07-28T12:12:28;99514.13;;;24.56;100.00
2339;BME280;1180;51.438;6.978;2023-07-28T12:14:58;99505.88;;;24.72;100.00
2339;BME280;1180;51.438;6.978;2023-07-28T12:17:30;99506.91;;;24.85;100.00
2339;BME280;1180;51.438;6.978;2023-07-28T12:22:41;99517.16;;;25.13;100.00
2339;BME280;1180;51.438;6.978;2023-07-28T12:25:08;99517.31;;;25.25;100.00
2339;BME280;1180;51.438;6.978;2023-07-28T12:27:34;99516.50;;;25.31;100.00
2339;BME280;1180;51.438;6.978;2023-07-28T12:30:00;99517.50;;;25.30;100.00
2339;BME280;1180;51.438;6.978;2023-07-28T12:32:26;99513.69;;;25.26;98.50
2339;BME280;1180;51.438;6.978;2023-07-28T12:34:52;99521.75;;;25.31;98.01
2339;BME280;1180;51.438;6.978;2023-07-28T12:37:19;99513.06;;;25.37;97.63
2339;BME280;1180;51.438;6.978;2023-07-28T12:39:45;99513.03;;;25.44;97.14
2339;BME280;1180;51.438;6.978;2023-07-28T12:42:11;99518.28;;;25.44;94.10
2339;BME280;1180;51.438;6.978;2023-07-28T12:44:38;99511.19;;;25.51;93.02
2339;BME280;1180;51.438;6.978;2023-07-28T12:47:03;99521.72;;;25.45;90.22
2339;BME280;1180;51.438;6.978;2023-07-28T12:49:30;99517.09;;;25.47;90.01
2339;BME280;1180;51.438;6.978;2023-07-28T12:51:58;99509.81;;;25.56;92.57
2339;BME280;1180;51.438;6.978;2023-07-28T12:54:24;99507.69;;;25.71;93.70
2339;BME280;1180;51.438;6.978;2023-07-28T12:56:51;99507.44;;;25.79;93.06
2339;BME280;1180;51.438;6.978;2023-07-28T12:59:17;99509.59;;;25.96;92.91
2339;BME280;1180;51.438;6.978;2023-07-28T13:01:43;99520.75;;;25.91;90.46
2339;BME280;1180;51.438;6.978;2023-07-28T13:04:09;99519.22;;;25.77;89.66
2339;BME280;1180;51.438;6.978;2023-07-28T13:06:34;99524.06;;;25.73;91.23
2339;BME280;1180;51.438;6.978;2023-07-28T13:09:01;99524.50;;;25.63;90.98
2339;BME280;1180;51.438;6.978;2023-07-28T13:11:27;99528.38;;;25.61;90.93
2339;BME280;1180;51.438;6.978;2023-07-28T13:13:53;99527.28;;;25.75;89.90
2339;BME280;1180;51.438;6.978;2023-07-28T13:16:18;99532.25;;;25.97;89.57
2339;BME280;1180;51.438;6.978;2023-07-28T13:18:44;99527.09;;;26.16;89.33
2339;BME280;1180;51.438;6.978;2023-07-28T13:21:10;99523.72;;;26.41;90.09